KSAD

Safford Regional Airport

Safford, Arizona, USA
METAR KSAD 191451Z AUTO 16009KT 10SM CLR 00/M09 A3013 RMK AO2 SLP204 T00001094 51003
Observed Flight Rules
Jan-19 @ 14:51 UTC (36 minutes ago) Visual Flight Rules
Wind Visibility Clouds
160° at 9 knots 10 miles
  • Clear skies
Temperatures Readings
Current 0°C / 32°F
Dewpoint -9°C / 16°F
Humidity 51%
Altimeter 30.13" Hg
Pressure 1020.4 hPa
Elevation 962
METAR KSAD 191451Z AUTO 16009KT 10SM CLR 00/M09 A3013 RMK AO2 SLP204 T00001094 51003
Observed Flight Rules
Jan-19 @ 14:51 UTC
(36 minutes ago)
VFR
Wind Visibility
160° at 9 knots 10 miles
Clouds
  • Clear skies
Temperature Dewpoint
0°C / 32°F -9°C / 16°F
Humidity Altimeter Pressure
51% 30.13" Hg 1020.4 hPa